Time;durP1;ratioP1;P1;durP2;ratioP2;P2;SDS_P1;SDS_P2;PMS_P1;PMS_P2;Temp;Humidity;BMP_temperature;BMP_pressure;BME280_temperature;BME280_humidity;BME280_pressure;Samples;Min_cycle;Max_cycle;Signal;HPM_P1;HPM_P2
2022/10/22 00:02:07;;;;;;;22.53;15.70;;;13.80;99.90;;;;;;5025715;28;20212;-95
2022/10/22 00:04:36;;;;;;;22.50;15.17;;;13.90;99.90;;;;;;5015812;28;20291;-95
2022/10/22 00:07:02;;;;;;;22.80;15.40;;;13.90;99.90;;;;;;5022180;28;20211;-95
2022/10/22 00:09:29;;;;;;;18.70;14.60;;;13.90;99.90;;;;;;5017729;28;20232;-96
2022/10/22 00:11:56;;;;;;;21.23;14.03;;;13.90;99.90;;;;;;5019105;28;20220;-96
2022/10/22 00:14:23;;;;;;;19.60;13.60;;;13.90;99.90;;;;;;5021573;28;20224;-95
2022/10/22 00:16:50;;;;;;;18.77;14.37;;;13.90;99.90;;;;;;5017239;28;20212;-96
2022/10/22 00:19:17;;;;;;;19.27;13.63;;;13.90;99.90;;;;;;5020589;28;20225;-95
2022/10/22 00:21:45;;;;;;;16.53;13.57;;;13.90;99.90;;;;;;5017710;28;20221;-95
2022/10/22 00:24:17;;;;;;;16.03;12.70;;;14.00;99.90;;;;;;5038084;28;20256;-96
2022/10/22 00:26:45;;;;;;;19.10;13.43;;;13.90;99.90;;;;;;5024028;28;20223;-95
2022/10/22 00:29:12;;;;;;;23.17;15.03;;;13.90;99.90;;;;;;5022679;28;20240;-95
2022/10/22 00:31:39;;;;;;;19.47;14.47;;;14.00;99.90;;;;;;5021838;28;20228;-95
2022/10/22 00:34:05;;;;;;;18.77;14.23;;;13.90;99.90;;;;;;5020108;28;20223;-96
2022/10/22 00:36:32;;;;;;;22.93;13.77;;;14.00;99.90;;;;;;5018292;28;20241;-95
2022/10/22 00:39:00;;;;;;;18.93;13.93;;;13.90;99.90;;;;;;5021983;28;20232;-95
2022/10/22 00:41:27;;;;;;;19.60;14.20;;;13.90;99.90;;;;;;5023281;28;20491;-94
2022/10/22 00:43:57;;;;;;;20.03;15.23;;;13.90;99.90;;;;;;5023123;28;20824;-96
2022/10/22 00:46:24;;;;;;;22.43;15.30;;;13.90;99.90;;;;;;5014141;28;20232;-96
2022/10/22 00:48:52;;;;;;;23.30;15.33;;;13.90;99.90;;;;;;5021938;28;20220;-95
2022/10/22 00:51:33;;;;;;;18.40;13.83;;;13.90;99.90;;;;;;5021367;28;20231;-95
2022/10/22 00:54:15;;;;;;;19.83;14.27;;;13.90;99.90;;;;;;5021402;28;20210;-96
2022/10/22 00:56:49;;;;;;;17.20;12.90;;;13.90;99.90;;;;;;5023622;28;20241;-94
2022/10/22 00:59:16;;;;;;;15.67;12.63;;;13.90;99.90;;;;;;5018458;28;20228;-95
2022/10/22 01:01:44;;;;;;;18.87;14.03;;;13.90;99.90;;;;;;5015285;28;20226;-94
2022/10/22 01:04:11;;;;;;;17.80;13.47;;;13.90;99.90;;;;;;5012920;28;20223;-94
2022/10/22 01:06:38;;;;;;;19.97;14.57;;;13.90;99.90;;;;;;5019939;28;20238;-95
2022/10/22 01:09:18;;;;;;;18.53;14.17;;;13.90;99.90;;;;;;5019793;28;20226;-95
2022/10/22 01:11:55;;;;;;;20.47;14.73;;;13.90;99.90;;;;;;5023009;28;20397;-95
2022/10/22 01:14:30;;;;;;;19.70;13.23;;;13.80;99.90;;;;;;5016120;28;20230;-95
2022/10/22 01:17:04;;;;;;;19.20;13.80;;;13.90;99.90;;;;;;5020616;28;20228;-93
2022/10/22 01:19:45;;;;;;;21.47;14.37;;;13.90;99.90;;;;;;5031169;28;20226;-94
2022/10/22 01:22:25;;;;;;;18.13;13.80;;;13.90;99.90;;;;;;5016854;28;20258;-94
2022/10/22 01:25:05;;;;;;;15.80;11.83;;;13.90;99.90;;;;;;5015000;28;20349;-94
2022/10/22 01:27:42;;;;;;;16.20;12.33;;;13.90;99.90;;;;;;5016756;28;20235;-94
2022/10/22 01:30:13;;;;;;;17.43;13.37;;;13.90;99.90;;;;;;5018765;28;20244;-95
2022/10/22 01:32:44;;;;;;;14.97;12.30;;;13.90;99.90;;;;;;5021684;28;20761;-94
2022/10/22 01:35:15;;;;;;;17.10;12.83;;;13.90;99.90;;;;;;5018724;28;20223;-95
2022/10/22 01:37:49;;;;;;;16.37;13.57;;;13.90;99.90;;;;;;5039769;28;20242;-94
2022/10/22 01:40:17;;;;;;;16.40;13.00;;;13.90;99.90;;;;;;5021047;28;20244;-94
2022/10/22 01:42:55;;;;;;;18.23;13.63;;;13.90;99.90;;;;;;5022773;28;20225;-95
2022/10/22 01:45:23;;;;;;;18.73;13.40;;;13.90;99.90;;;;;;5022186;28;20227;-95
2022/10/22 01:47:57;;;;;;;22.47;14.93;;;13.90;99.90;;;;;;5021266;28;20282;-94
2022/10/22 01:50:39;;;;;;;19.00;12.80;;;13.90;99.90;;;;;;5018044;28;20231;-96
2022/10/22 01:53:25;;;;;;;14.83;11.77;;;13.90;99.90;;;;;;5016004;28;20218;-94
2022/10/22 01:56:06;;;;;;;17.13;12.93;;;13.90;99.90;;;;;;5024170;28;20223;-93
2022/10/22 01:58:41;;;;;;;19.80;13.27;;;13.90;99.90;;;;;;5037107;28;20220;-95
2022/10/22 02:01:18;;;;;;;17.43;13.30;;;13.90;99.90;;;;;;5016385;28;20231;-94
2022/10/22 02:03:51;;;;;;;15.60;11.97;;;13.90;99.90;;;;;;5013859;28;20315;-93
2022/10/22 02:06:20;;;;;;;16.50;12.77;;;13.80;99.90;;;;;;5014619;28;20314;-94
2022/10/22 02:08:52;;;;;;;18.60;11.83;;;13.70;99.90;;;;;;5014040;28;20292;-94
2022/10/22 02:11:18;;;;;;;16.23;12.03;;;13.70;99.90;;;;;;5021531;28;20220;-95
2022/10/22 02:13:48;;;;;;;19.17;13.20;;;13.60;99.90;;;;;;5015408;28;20252;-93
2022/10/22 02:16:22;;;;;;;21.00;14.90;;;13.50;99.90;;;;;;5003632;28;20244;-94
2022/10/22 02:18:55;;;;;;;24.57;13.33;;;13.40;99.90;;;;;;5017126;28;20232;-94
2022/10/22 02:21:28;;;;;;;22.93;14.67;;;13.30;99.90;;;;;;5020012;28;20228;-94
2022/10/22 02:23:55;;;;;;;26.13;15.20;;;13.30;99.90;;;;;;5020737;28;20251;-94
2022/10/22 02:26:25;;;;;;;18.83;14.80;;;13.20;99.90;;;;;;5013365;28;21075;-94
2022/10/22 02:28:59;;;;;;;18.77;14.20;;;13.10;99.90;;;;;;5016918;28;20232;-93
2022/10/22 02:31:31;;;;;;;22.03;14.13;;;13.00;99.90;;;;;;5010270;28;20247;-94
2022/10/22 02:34:06;;;;;;;213.03;19.57;;;13.00;99.90;;;;;;5011514;28;20224;-94
2022/10/22 02:36:37;;;;;;;15.17;11.93;;;12.90;99.90;;;;;;5013251;28;20445;-94
2022/10/22 02:39:04;;;;;;;19.20;12.00;;;12.80;99.90;;;;;;5013643;28;20208;-94
2022/10/22 02:41:31;;;;;;;21.03;14.00;;;12.70;99.90;;;;;;5022214;28;20263;-94
2022/10/22 02:44:02;;;;;;;66.27;15.07;;;12.70;99.90;;;;;;5024750;28;20227;-94
2022/10/22 02:46:30;;;;;;;24.00;14.13;;;12.60;99.90;;;;;;5020343;28;20225;-94
2022/10/22 02:48:57;;;;;;;22.97;12.73;;;12.60;99.90;;;;;;5022151;28;20225;-94
2022/10/22 02:51:24;;;;;;;29.03;13.70;;;12.50;99.90;;;;;;5024060;28;20296;-94
2022/10/22 02:53:50;;;;;;;23.00;13.13;;;12.50;99.90;;;;;;5025332;28;20230;-95
2022/10/22 02:56:17;;;;;;;46.80;13.33;;;12.50;99.90;;;;;;5023174;28;20215;-95
2022/10/22 02:58:44;;;;;;;35.90;12.93;;;12.50;99.90;;;;;;5020969;28;20214;-96
2022/10/22 03:01:11;;;;;;;28.47;12.67;;;12.50;99.90;;;;;;5015103;28;20246;-95
2022/10/22 03:03:39;;;;;;;21.37;12.67;;;12.50;99.90;;;;;;5008856;28;20233;-93
2022/10/22 03:06:16;;;;;;;;;;;;;;;;;;;;;
2022/10/22 03:08:43;;;;;;;19.40;12.40;;;12.40;99.90;;;;;;5034973;28;20249;-94
2022/10/22 03:11:13;;;;;;;17.00;12.00;;;12.30;99.90;;;;;;5008112;28;20250;-95
2022/10/22 03:13:40;;;;;;;27.27;12.17;;;12.40;99.90;;;;;;5013669;28;20226;-95
2022/10/22 03:16:07;;;;;;;14.87;11.37;;;12.20;99.90;;;;;;5008383;28;20217;-95
2022/10/22 03:18:34;;;;;;;14.57;9.70;;;12.20;99.90;;;;;;5024965;28;20221;-95
2022/10/22 03:21:11;;;;;;;58.03;12.87;;;12.20;99.90;;;;;;5023956;28;20240;-95
2022/10/22 03:23:40;;;;;;;16.93;10.57;;;12.10;99.90;;;;;;5037472;28;20210;-94
2022/10/22 03:26:08;;;;;;;34.83;12.70;;;12.10;99.90;;;;;;5021868;28;20221;-95
2022/10/22 03:28:36;;;;;;;46.73;14.63;;;12.10;99.90;;;;;;5011675;28;20575;-93
2022/10/22 03:31:10;;;;;;;19.40;13.20;;;12.00;99.90;;;;;;5006930;28;20222;-93
2022/10/22 03:33:37;;;;;;;24.00;14.47;;;12.10;99.90;;;;;;5002077;28;20254;-93
2022/10/22 03:36:07;;;;;;;26.40;13.93;;;12.00;99.90;;;;;;5006084;28;20225;-93
2022/10/22 03:38:35;;;;;;;16.47;11.37;;;12.00;99.90;;;;;;5006676;28;20731;-93
2022/10/22 03:41:02;;;;;;;20.47;12.10;;;12.00;99.90;;;;;;5010158;28;20257;-93
2022/10/22 03:43:31;;;;;;;52.53;12.80;;;12.00;99.90;;;;;;5003443;28;20241;-95
2022/10/22 03:45:58;;;;;;;68.00;13.77;;;11.90;99.90;;;;;;5013273;28;20298;-94
2022/10/22 03:48:25;;;;;;;50.23;12.67;;;11.90;99.90;;;;;;5008911;28;20292;-93
2022/10/22 03:50:52;;;;;;;69.73;14.00;;;11.90;99.90;;;;;;5011219;28;20229;-93
2022/10/22 03:53:20;;;;;;;74.47;14.53;;;11.80;99.90;;;;;;5004586;28;20229;-93
2022/10/22 03:55:47;;;;;;;42.83;11.83;;;11.80;99.90;;;;;;5005633;28;20214;-93
2022/10/22 03:58:14;;;;;;;53.87;12.07;;;11.80;99.90;;;;;;5006436;28;20228;-94
2022/10/22 04:00:43;;;;;;;45.80;12.80;;;11.80;99.90;;;;;;4997979;28;20225;-93
2022/10/22 04:03:10;;;;;;;61.87;13.43;;;11.80;99.90;;;;;;4991587;28;20309;-93
2022/10/22 04:05:37;;;;;;;71.40;14.47;;;11.80;99.90;;;;;;4996831;28;20312;-93
2022/10/22 04:08:04;;;;;;;58.70;14.40;;;11.80;99.90;;;;;;5004368;28;20221;-94
2022/10/22 04:10:32;;;;;;;65.10;15.27;;;11.90;99.90;;;;;;5000789;28;20244;-92
2022/10/22 04:13:00;;;;;;;74.10;15.93;;;11.90;99.90;;;;;;5002535;28;20246;-93
2022/10/22 04:15:31;;;;;;;111.20;19.10;;;11.90;99.90;;;;;;5001558;28;20768;-93
2022/10/22 04:18:00;;;;;;;110.83;17.97;;;12.00;99.90;;;;;;5014850;28;20235;-93
2022/10/22 04:20:27;;;;;;;137.00;18.63;;;12.10;99.90;;;;;;5014332;28;20298;-93
2022/10/22 04:22:54;;;;;;;120.37;18.77;;;12.10;99.90;;;;;;5000704;28;20244;-93
2022/10/22 04:25:21;;;;;;;92.50;16.63;;;12.10;99.90;;;;;;4997332;28;20256;-93
2022/10/22 04:27:49;;;;;;;125.80;19.57;;;12.10;99.90;;;;;;5001647;28;20249;-93
2022/10/22 04:30:16;;;;;;;83.33;16.37;;;12.10;99.90;;;;;;5000264;28;20221;-93
2022/10/22 04:32:42;;;;;;;90.00;16.47;;;12.10;99.90;;;;;;5002028;28;20247;-93
2022/10/22 04:35:09;;;;;;;84.07;15.17;;;12.20;99.90;;;;;;5002817;28;20750;-93
2022/10/22 04:37:36;;;;;;;139.40;18.67;;;12.20;99.90;;;;;;5008200;28;20237;-93
2022/10/22 04:40:03;;;;;;;88.30;15.37;;;12.30;99.90;;;;;;5012621;28;20322;-93
2022/10/22 04:42:31;;;;;;;88.13;16.43;;;12.30;99.90;;;;;;5018631;28;20231;-95
2022/10/22 04:44:59;;;;;;;108.07;16.80;;;12.30;99.90;;;;;;5008211;28;20700;-93
2022/10/22 04:47:26;;;;;;;57.40;13.47;;;12.30;99.90;;;;;;5009320;28;20229;-94
2022/10/22 04:49:53;;;;;;;80.97;15.47;;;12.40;99.90;;;;;;5007240;28;20822;-94
2022/10/22 04:52:19;;;;;;;88.43;15.70;;;12.40;99.90;;;;;;5010282;28;20235;-93
2022/10/22 04:54:47;;;;;;;55.03;13.10;;;12.40;99.90;;;;;;5001427;28;20308;-93
2022/10/22 04:57:13;;;;;;;49.23;13.80;;;12.30;99.90;;;;;;5010454;28;20255;-94
2022/10/22 04:59:41;;;;;;;58.40;14.00;;;12.40;99.90;;;;;;5011554;28;20229;-94
2022/10/22 05:02:09;;;;;;;73.27;13.53;;;12.30;99.90;;;;;;5005657;28;20886;-94
2022/10/22 05:04:35;;;;;;;54.00;13.73;;;12.30;99.90;;;;;;5004763;28;20229;-93
2022/10/22 05:07:02;;;;;;;60.63;13.67;;;12.30;99.90;;;;;;5012125;28;20293;-94
2022/10/22 05:09:29;;;;;;;57.17;13.33;;;12.30;99.90;;;;;;5003897;28;20243;-93
2022/10/22 05:11:56;;;;;;;53.93;13.57;;;12.40;99.90;;;;;;5010225;28;20228;-96
2022/10/22 05:14:24;;;;;;;75.53;14.10;;;12.30;99.90;;;;;;5021804;22;20221;-84
2022/10/22 05:16:51;;;;;;;71.37;14.47;;;12.30;99.90;;;;;;5003381;28;20247;-83
2022/10/22 05:19:22;;;;;;;87.27;15.07;;;12.30;99.90;;;;;;5000664;28;20226;-83
2022/10/22 05:21:49;;;;;;;73.23;13.63;;;12.20;99.90;;;;;;4998560;28;20237;-83
2022/10/22 05:24:16;;;;;;;63.30;14.13;;;12.20;99.90;;;;;;5002864;28;20232;-83
2022/10/22 05:26:43;;;;;;;63.83;13.53;;;12.20;99.90;;;;;;4997287;28;20666;-83
2022/10/22 05:29:10;;;;;;;60.27;14.07;;;12.10;99.90;;;;;;4998600;28;20233;-83
2022/10/22 05:31:37;;;;;;;57.93;14.37;;;12.10;99.90;;;;;;4998035;28;20297;-83
2022/10/22 05:34:04;;;;;;;54.40;13.27;;;12.10;99.90;;;;;;4993073;28;20224;-83
2022/10/22 05:36:32;;;;;;;59.30;13.30;;;12.10;99.90;;;;;;4999119;28;20234;-84
2022/10/22 05:38:59;;;;;;;69.90;14.70;;;12.00;99.90;;;;;;5004319;28;20213;-84
2022/10/22 05:41:27;;;;;;;69.43;14.67;;;12.00;99.90;;;;;;5002122;28;20236;-82
2022/10/22 05:43:55;;;;;;;80.47;15.13;;;12.00;99.90;;;;;;4997763;28;20225;-83
2022/10/22 05:46:24;;;;;;;40.50;13.43;;;12.00;99.90;;;;;;4998081;28;20689;-83
2022/10/22 05:48:50;;;;;;;50.13;13.50;;;12.00;99.90;;;;;;5001283;28;20225;-83
2022/10/22 05:51:18;;;;;;;62.53;15.10;;;12.00;99.90;;;;;;5000410;28;20241;-82
2022/10/22 05:53:46;;;;;;;34.13;13.43;;;12.00;99.90;;;;;;5000080;28;20221;-83
2022/10/22 05:56:14;;;;;;;39.43;14.37;;;12.00;99.90;;;;;;4999331;28;20222;-82
2022/10/22 05:58:42;;;;;;;51.30;13.77;;;12.00;99.90;;;;;;4994572;28;20312;-82
2022/10/22 06:01:13;;;;;;;56.10;14.37;;;12.00;99.90;;;;;;4996808;28;20236;-82
2022/10/22 06:03:40;;;;;;;49.43;15.93;;;12.00;99.90;;;;;;4997169;28;20257;-82
2022/10/22 06:06:17;;;;;;;41.67;14.07;;;12.00;99.90;;;;;;5004375;28;20222;-81
2022/10/22 06:08:45;;;;;;;59.93;15.00;;;12.00;99.90;;;;;;5007306;28;20725;-82
2022/10/22 06:11:12;;;;;;;42.17;15.27;;;12.00;99.90;;;;;;5000020;28;20758;-82
2022/10/22 06:13:42;;;;;;;71.57;15.73;;;12.00;99.90;;;;;;5015998;22;20304;-96
2022/10/22 06:16:09;;;;;;;71.67;18.87;;;12.00;99.90;;;;;;5047251;28;20204;-96
2022/10/22 06:18:36;;;;;;;46.07;17.83;;;12.00;99.90;;;;;;5047244;28;20583;-95
2022/10/22 06:21:07;;;;;;;67.93;17.70;;;12.00;99.90;;;;;;5049574;28;20209;-96
2022/10/22 06:23:35;;;;;;;91.53;18.93;;;12.00;99.90;;;;;;5045158;28;20312;-96
2022/10/22 06:26:04;;;;;;;44.00;16.70;;;12.00;99.90;;;;;;5050804;28;20223;-96
2022/10/22 06:28:32;;;;;;;58.77;16.13;;;12.00;99.90;;;;;;5042162;28;20233;-96
2022/10/22 06:30:59;;;;;;;105.20;19.23;;;12.00;99.90;;;;;;5049303;28;21277;-96
2022/10/22 06:33:26;;;;;;;94.63;18.53;;;12.00;99.90;;;;;;5046039;28;20605;-95
2022/10/22 06:35:53;;;;;;;78.40;18.10;;;12.00;99.90;;;;;;5045244;28;20217;-96
2022/10/22 06:38:21;;;;;;;98.37;20.13;;;12.00;99.90;;;;;;5051362;28;20228;-96
2022/10/22 06:40:48;;;;;;;74.73;18.73;;;12.00;99.90;;;;;;5051167;28;20238;-96
2022/10/22 06:43:16;;;;;;;119.53;20.67;;;12.00;99.90;;;;;;5042283;28;20225;-96
2022/10/22 06:45:44;;;;;;;88.30;18.20;;;12.10;99.90;;;;;;5052651;28;20208;-96
2022/10/22 06:48:11;;;;;;;99.37;19.93;;;12.10;99.90;;;;;;5051002;28;20205;-95
2022/10/22 06:50:38;;;;;;;117.80;22.57;;;12.10;99.90;;;;;;5054096;23;20768;-79
2022/10/22 06:53:04;;;;;;;102.63;21.83;;;12.10;99.90;;;;;;5027488;28;20222;-79
2022/10/22 06:55:31;;;;;;;81.40;21.23;;;12.10;99.90;;;;;;5007589;28;20803;-80
2022/10/22 06:57:58;;;;;;;92.33;22.93;;;12.10;99.90;;;;;;5009340;28;20257;-79
2022/10/22 07:00:26;;;;;;;110.13;22.10;;;12.10;99.90;;;;;;5001711;28;20308;-78
2022/10/22 07:02:53;;;;;;;72.27;20.50;;;12.10;99.90;;;;;;4997396;28;20238;-80
2022/10/22 07:05:20;;;;;;;76.93;19.83;;;12.10;99.90;;;;;;5006445;28;20221;-79
2022/10/22 07:07:47;;;;;;;114.63;21.73;;;12.10;99.90;;;;;;5007475;28;20241;-78
2022/10/22 07:10:14;;;;;;;88.00;20.67;;;12.10;99.90;;;;;;5005593;28;20251;-79
2022/10/22 07:12:40;;;;;;;86.47;20.57;;;12.20;99.90;;;;;;5004121;28;20695;-79
2022/10/22 07:15:08;;;;;;;89.27;22.27;;;12.20;99.90;;;;;;4996620;28;20799;-79
2022/10/22 07:17:36;;;;;;;109.30;22.73;;;12.30;99.90;;;;;;5001134;28;20234;-78
2022/10/22 07:20:03;;;;;;;82.17;22.17;;;12.30;99.90;;;;;;4998470;28;20218;-79
2022/10/22 07:22:32;;;;;;;130.97;24.00;;;12.30;99.90;;;;;;5014359;28;20232;-79
2022/10/22 07:24:59;;;;;;;67.63;21.03;;;12.40;99.90;;;;;;5001489;28;20258;-81
2022/10/22 07:27:25;;;;;;;82.70;22.20;;;12.40;99.90;;;;;;5000831;28;20221;-80
2022/10/22 07:29:52;;;;;;;57.90;21.10;;;12.40;99.90;;;;;;4999592;28;20246;-82
2022/10/22 07:32:21;;;;;;;54.97;20.83;;;12.40;99.90;;;;;;5001894;28;20223;-81
2022/10/22 07:34:49;;;;;;;55.07;21.63;;;12.40;99.90;;;;;;5004399;28;20225;-82
2022/10/22 07:37:20;;;;;;;57.43;21.13;;;12.50;99.90;;;;;;5001004;28;20219;-80
2022/10/22 07:39:47;;;;;;;57.33;21.07;;;12.50;99.90;;;;;;5007778;28;20284;-81
2022/10/22 07:42:14;;;;;;;31.50;19.60;;;12.50;99.90;;;;;;4998797;28;20257;-80
2022/10/22 07:44:40;;;;;;;34.93;20.63;;;12.50;99.90;;;;;;5008743;28;20225;-80
2022/10/22 07:47:07;;;;;;;26.77;18.93;;;12.60;99.90;;;;;;5001798;28;20609;-82
2022/10/22 07:49:34;;;;;;;40.03;20.10;;;12.60;99.90;;;;;;5003450;28;20660;-81
2022/10/22 07:52:02;;;;;;;59.37;21.90;;;12.60;99.90;;;;;;5002633;28;20251;-83
2022/10/22 07:54:29;;;;;;;26.50;19.00;;;12.60;99.90;;;;;;5007357;28;20235;-81
2022/10/22 07:56:55;;;;;;;27.13;18.57;;;12.70;99.90;;;;;;5003016;28;20291;-82
2022/10/22 07:59:22;;;;;;;25.80;18.07;;;12.70;99.90;;;;;;5000595;28;20221;-81
2022/10/22 08:01:49;;;;;;;23.87;17.33;;;12.70;99.90;;;;;;4996989;28;20248;-81
2022/10/22 08:04:15;;;;;;;25.27;16.63;;;12.70;99.90;;;;;;5001828;28;20287;-79
2022/10/22 08:06:42;;;;;;;25.40;18.03;;;12.80;99.90;;;;;;5001420;28;20230;-79
2022/10/22 08:09:10;;;;;;;23.03;17.37;;;12.80;99.90;;;;;;5003389;28;20751;-82
2022/10/22 08:11:37;;;;;;;24.87;17.90;;;12.80;99.90;;;;;;5004708;28;20920;-81
2022/10/22 08:14:04;;;;;;;26.00;17.00;;;12.90;99.90;;;;;;5003073;28;20692;-79
2022/10/22 08:16:31;;;;;;;23.23;17.40;;;13.00;99.90;;;;;;4998272;28;20772;-81
2022/10/22 08:18:58;;;;;;;21.77;17.17;;;13.00;99.90;;;;;;5005191;28;20224;-82
2022/10/22 08:21:24;;;;;;;21.13;16.80;;;13.10;99.90;;;;;;5002108;28;20228;-80
2022/10/22 08:23:53;;;;;;;20.63;16.00;;;13.20;99.90;;;;;;4999057;28;20244;-81
2022/10/22 08:26:21;;;;;;;21.53;17.07;;;13.30;99.90;;;;;;5000955;28;20222;-80
2022/10/22 08:28:50;;;;;;;21.30;14.93;;;13.40;99.90;;;;;;4999815;28;20349;-79
2022/10/22 08:31:17;;;;;;;21.17;15.63;;;13.60;99.90;;;;;;4997063;28;20232;-82
2022/10/22 08:33:46;;;;;;;20.50;16.80;;;13.80;99.90;;;;;;4996334;28;20250;-79
2022/10/22 08:36:12;;;;;;;19.50;14.73;;;14.20;99.90;;;;;;5002248;28;20231;-79
2022/10/22 08:38:39;;;;;;;14.83;13.20;;;14.60;99.90;;;;;;5000009;28;20245;-80
2022/10/22 08:41:12;;;;;;;16.57;12.37;;;15.10;99.90;;;;;;5001160;28;20242;-79
2022/10/22 08:43:58;;;;;;;13.77;11.80;;;15.70;99.90;;;;;;5001509;28;20315;-82
2022/10/22 08:46:40;;;;;;;16.50;11.50;;;16.30;99.90;;;;;;4997446;28;20236;-80
2022/10/22 08:49:12;;;;;;;14.07;10.33;;;17.00;99.90;;;;;;4997041;28;20312;-81
2022/10/22 08:51:40;;;;;;;12.27;10.03;;;17.60;99.90;;;;;;4998182;28;21070;-79
2022/10/22 08:54:22;;;;;;;13.63;10.10;;;18.10;99.90;;;;;;4975681;28;20222;-80
2022/10/22 08:57:01;;;;;;;13.43;9.43;;;18.60;99.90;;;;;;5000347;28;20243;-79
2022/10/22 08:59:38;;;;;;;11.40;8.77;;;19.00;99.90;;;;;;4995981;28;20221;-79
2022/10/22 09:02:22;;;;;;;12.33;8.80;;;19.20;99.90;;;;;;5002603;28;20989;-79
2022/10/22 09:04:56;;;;;;;14.27;9.10;;;19.40;99.90;;;;;;4998684;28;20224;-79
2022/10/22 09:07:24;;;;;;;11.83;8.70;;;19.50;99.90;;;;;;4994533;28;20225;-79
2022/10/22 09:09:54;;;;;;;12.30;8.33;;;19.70;99.90;;;;;;4995392;28;20232;-80
2022/10/22 09:12:23;;;;;;;8.97;8.03;;;20.00;99.90;;;;;;5000684;28;20228;-80
2022/10/22 09:14:51;;;;;;;8.80;7.90;;;20.20;99.90;;;;;;4997369;28;20260;-82
2022/10/22 09:17:25;;;;;;;9.32;7.45;;;20.50;99.90;;;;;;5009242;28;20229;-81
2022/10/22 09:20:02;;;;;;;10.67;8.10;;;20.70;99.90;;;;;;4997970;28;20229;-79
2022/10/22 09:22:39;;;;;;;9.00;7.70;;;20.80;99.90;;;;;;4995328;28;20289;-82
2022/10/22 09:25:20;;;;;;;11.17;8.30;;;20.80;99.90;;;;;;4990396;28;20307;-79
2022/10/22 09:27:48;;;;;;;9.20;7.43;;;20.80;99.90;;;;;;4998452;28;20266;-78
2022/10/22 09:30:21;;;;;;;9.40;6.80;;;20.80;99.90;;;;;;4995529;28;20812;-78
2022/10/22 09:32:51;;;;;;;10.20;7.80;;;20.80;99.90;;;;;;4999902;28;20224;-82
2022/10/22 09:35:23;;;;;;;11.27;8.90;;;20.80;99.90;;;;;;4998580;28;20229;-81
2022/10/22 09:37:53;;;;;;;13.97;8.00;;;20.90;99.90;;;;;;4997504;28;20228;-79
2022/10/22 09:40:21;;;;;;;9.68;7.43;;;21.10;99.90;;;;;;5002776;28;20228;-80
2022/10/22 09:42:48;;;;;;;7.90;6.40;;;21.20;99.90;;;;;;5003080;28;20313;-82
2022/10/22 09:45:20;;;;;;;12.05;7.75;;;21.40;99.90;;;;;;4998644;28;20244;-79
2022/10/22 09:47:49;;;;;;;13.23;7.85;;;21.50;99.90;;;;;;4994244;28;20225;-78
2022/10/22 09:50:26;;;;;;;7.65;6.38;;;21.70;99.90;;;;;;4996633;28;20320;-79
2022/10/22 09:52:59;;;;;;;8.85;6.57;;;21.90;99.90;;;;;;4995900;28;20226;-79
2022/10/22 09:55:26;;;;;;;6.45;5.82;;;22.00;99.90;;;;;;5005371;28;20225;-78
2022/10/22 09:57:55;;;;;;;9.73;6.60;;;22.10;99.90;;;;;;5004481;28;20590;-80
2022/10/22 10:00:25;;;;;;;13.13;7.28;;;22.20;99.90;;;;;;5004064;28;20693;-79
2022/10/22 10:02:56;;;;;;;10.02;6.43;;;22.20;99.90;;;;;;5000386;28;20310;-83
2022/10/22 10:05:28;;;;;;;10.27;5.82;;;22.10;99.90;;;;;;4997909;28;20233;-79
2022/10/22 10:07:55;;;;;;;8.13;5.78;;;22.00;99.90;;;;;;5001677;28;20981;-79
2022/10/22 10:10:33;;;;;;;8.73;5.55;;;21.90;99.90;;;;;;5001323;28;20259;-79
2022/10/22 10:13:11;;;;;;;7.20;5.78;;;21.70;99.90;;;;;;4991557;28;20315;-80
2022/10/22 10:15:45;;;;;;;9.10;6.00;;;21.60;99.90;;;;;;5004041;28;20236;-79
2022/10/22 10:18:24;;;;;;;11.40;5.97;;;21.50;99.90;;;;;;5002084;28;20232;-79
2022/10/22 10:20:58;;;;;;;8.32;5.65;;;21.40;99.90;;;;;;4998502;28;20233;-80
2022/10/22 10:23:33;;;;;;;10.55;5.90;;;21.30;99.90;;;;;;4999545;28;20244;-81
2022/10/22 10:26:07;;;;;;;9.35;5.70;;;21.20;99.90;;;;;;5003279;28;20227;-80
2022/10/22 10:28:54;;;;;;;12.87;5.57;;;21.10;99.90;;;;;;4999285;28;20708;-81
2022/10/22 10:31:33;;;;;;;8.98;4.30;;;21.00;99.90;;;;;;4997078;28;20230;-83
2022/10/22 10:34:09;;;;;;;7.60;5.15;;;21.00;99.90;;;;;;4996066;28;20224;-78
2022/10/22 10:36:41;;;;;;;10.10;4.90;;;20.90;99.90;;;;;;4995668;28;20761;-80
2022/10/22 10:39:12;;;;;;;7.60;4.63;;;20.80;99.90;;;;;;4995031;28;20225;-79
2022/10/22 10:41:52;;;;;;;7.77;4.73;;;20.80;99.90;;;;;;5006603;28;20222;-79
2022/10/22 10:44:40;;;;;;;9.70;4.30;;;20.80;99.90;;;;;;5008499;28;20321;-79
2022/10/22 10:47:21;;;;;;;7.50;3.92;;;20.80;99.90;;;;;;4995174;28;20404;-79
2022/10/22 10:49:50;;;;;;;8.75;4.20;;;20.80;99.90;;;;;;4990660;28;20232;-78
2022/10/22 10:52:25;;;;;;;7.13;3.38;;;21.00;99.90;;;;;;4996489;28;20222;-78
2022/10/22 10:55:04;;;;;;;6.45;3.70;;;21.20;99.90;;;;;;4994957;28;20225;-78
2022/10/22 10:57:41;;;;;;;7.95;3.70;;;21.40;99.90;;;;;;4993757;28;20607;-80
2022/10/22 11:00:11;;;;;;;8.00;3.45;;;21.60;99.90;;;;;;4993886;28;20235;-79
2022/10/22 11:03:20;;;;;;;7.18;3.35;;;21.80;99.90;;;;;;5000257;28;20689;-79
2022/10/22 11:05:52;;;;;;;7.95;3.40;;;21.80;99.90;;;;;;4969583;28;20244;-79
2022/10/22 11:08:22;;;;;;;4.82;2.60;;;21.80;99.90;;;;;;4999946;28;20583;-81
2022/10/22 11:10:52;;;;;;;4.63;2.88;;;21.90;99.90;;;;;;4998670;28;20234;-81
2022/10/22 11:13:26;;;;;;;4.50;2.80;;;22.00;99.90;;;;;;4993337;28;20228;-79
2022/10/22 11:15:59;;;;;;;6.72;3.00;;;22.00;99.90;;;;;;5000442;28;20225;-78
2022/10/22 11:18:33;;;;;;;5.07;2.70;;;22.00;99.90;;;;;;4988991;28;20231;-80
2022/10/22 11:21:22;;;;;;;5.38;2.42;;;22.00;99.90;;;;;;4996053;28;20231;-80
2022/10/22 11:23:54;;;;;;;4.75;3.20;;;22.10;99.90;;;;;;4992789;28;21774;-79
2022/10/22 11:26:31;;;;;;;6.35;3.35;;;22.10;99.90;;;;;;5003467;28;20743;-80
2022/10/22 11:29:01;;;;;;;7.60;3.67;;;22.10;99.90;;;;;;4992246;28;20221;-82
2022/10/22 11:31:30;;;;;;;7.57;3.10;;;22.10;99.90;;;;;;5000791;28;20233;-79
2022/10/22 11:34:04;;;;;;;5.63;2.60;;;22.00;99.90;;;;;;4995915;28;20725;-80
2022/10/22 11:36:32;;;;;;;6.53;3.13;;;22.00;99.90;;;;;;4989605;28;20315;-80
2022/10/22 11:38:59;;;;;;;4.90;2.80;;;22.00;99.90;;;;;;5002746;28;20257;-79
2022/10/22 11:41:30;;;;;;;5.53;2.92;;;21.80;99.90;;;;;;4997658;28;20699;-78
2022/10/22 11:44:04;;;;;;;9.80;3.15;;;21.80;99.90;;;;;;5001276;28;20226;-79
2022/10/22 11:46:42;;;;;;;5.55;2.40;;;21.80;99.90;;;;;;5003864;28;20263;-82
2022/10/22 11:49:23;;;;;;;7.38;2.75;;;21.70;99.90;;;;;;5004150;28;20224;-80
2022/10/22 11:51:50;;;;;;;5.20;2.80;;;21.60;99.90;;;;;;5005462;28;20225;-79
2022/10/22 11:54:41;;;;;;;4.95;2.60;;;21.50;99.90;;;;;;4998474;28;20225;-80
2022/10/22 11:57:35;;;;;;;6.90;2.80;;;21.40;99.80;;;;;;4999092;28;20232;-80
2022/10/22 12:00:09;;;;;;;7.53;2.97;;;21.30;99.90;;;;;;5001515;28;20305;-79
2022/10/22 12:02:41;;;;;;;6.15;2.30;;;21.20;99.90;;;;;;5003043;28;20710;-80
2022/10/22 12:05:31;;;;;;;5.75;2.40;;;21.20;99.90;;;;;;5010579;28;20255;-80
2022/10/22 12:08:03;;;;;;;9.10;2.40;;;21.10;99.90;;;;;;5003322;28;20228;-80
2022/10/22 12:10:35;;;;;;;4.68;2.17;;;21.00;99.90;;;;;;4998931;28;20236;-80
2022/10/22 12:13:10;;;;;;;5.82;2.28;;;20.90;99.90;;;;;;5005480;28;20221;-80
2022/10/22 12:15:47;;;;;;;6.13;2.50;;;20.90;99.90;;;;;;5016737;23;20251;-81
2022/10/22 12:18:15;;;;;;;6.03;2.45;;;20.80;99.90;;;;;;5006179;28;20235;-81
2022/10/22 12:20:43;;;;;;;6.78;2.53;;;20.90;99.90;;;;;;5010154;28;20257;-86
2022/10/22 12:23:11;;;;;;;8.00;3.00;;;20.80;99.90;;;;;;5000918;28;20594;-81
2022/10/22 12:25:38;;;;;;;7.97;3.53;;;20.80;99.90;;;;;;5004937;28;20321;-80
2022/10/22 12:28:11;;;;;;;5.93;2.55;;;20.70;99.90;;;;;;5019039;28;20230;-83
2022/10/22 12:30:37;;;;;;;6.10;2.85;;;20.70;99.90;;;;;;5005374;28;20229;-80
2022/10/22 12:33:06;;;;;;;5.88;2.55;;;20.70;99.90;;;;;;5012086;28;20240;-80
2022/10/22 12:35:41;;;;;;;6.28;2.35;;;20.70;99.90;;;;;;5014986;28;20237;-82
2022/10/22 12:38:14;;;;;;;4.87;1.93;;;20.70;99.90;;;;;;4995084;28;20252;-82
2022/10/22 12:40:41;;;;;;;6.13;2.03;;;20.70;99.90;;;;;;5012151;28;20848;-81
2022/10/22 12:43:13;;;;;;;5.03;2.20;;;20.60;99.90;;;;;;5001657;28;20214;-81
2022/10/22 12:45:44;;;;;;;7.33;1.90;;;20.60;99.90;;;;;;5002901;28;20225;-81
2022/10/22 12:48:17;;;;;;;5.40;2.20;;;20.50;99.90;;;;;;5000503;28;20222;-82
2022/10/22 12:50:46;;;;;;;5.60;2.43;;;20.50;99.90;;;;;;5018074;28;20221;-82